Location Sebastian, FL, US

ob KFLSEBAS1 172325Z AUTO 13000G03KT CLR 25/19 A3020 RMK SLPNO 

2018.02.17 2325 UTC
Wind from the SE (129 degrees) at Calm MPH ( KT) gusting to 3.0 MPH (3 KT)
Visibility    Mile(s)
Sky Conditions  clear
Temperature 77.20 F (25 C)
Dew Point 66.25 F (19 C)
Relative Humidity 69%
Pressure   30.20 in. Hg (1023 hPa)
Rain  0.00 in.
Daily Rain  in.

Station Name  Memory Makers, Inc.
Longitude, Latitude  -80.48, 27.8
Elevation 23
Station URL www.kflsebas1.com
Software Type VWS V15.00